sensor_id;sensor_type;location;lat;lon;timestamp;P1;durP1;ratioP1;P2;durP2;ratioP2
79574;SDS011;69044;48.198;11.468;2023-12-14T00:01:13;1.70;;;1.10;;
79574;SDS011;69044;48.198;11.468;2023-12-14T00:03:40;2.78;;;1.17;;
79574;SDS011;69044;48.198;11.468;2023-12-14T00:06:09;1.48;;;1.05;;
79574;SDS011;69044;48.198;11.468;2023-12-14T00:08:38;1.55;;;1.08;;
79574;SDS011;69044;48.198;11.468;2023-12-14T00:11:05;2.05;;;1.17;;
79574;SDS011;69044;48.198;11.468;2023-12-14T00:13:32;1.58;;;1.10;;
79574;SDS011;69044;48.198;11.468;2023-12-14T00:15:59;1.23;;;1.10;;
79574;SDS011;69044;48.198;11.468;2023-12-14T00:18:27;1.35;;;1.00;;
79574;SDS011;69044;48.198;11.468;2023-12-14T00:20:54;2.00;;;1.20;;
79574;SDS011;69044;48.198;11.468;2023-12-14T00:23:21;1.90;;;1.20;;
79574;SDS011;69044;48.198;11.468;2023-12-14T00:25:50;1.52;;;1.00;;
79574;SDS011;69044;48.198;11.468;2023-12-14T00:28:17;1.70;;;1.00;;
79574;SDS011;69044;48.198;11.468;2023-12-14T00:30:44;1.40;;;1.00;;
79574;SDS011;69044;48.198;11.468;2023-12-14T00:33:12;2.25;;;1.30;;
79574;SDS011;69044;48.198;11.468;2023-12-14T00:35:39;2.03;;;1.20;;
79574;SDS011;69044;48.198;11.468;2023-12-14T00:38:06;1.75;;;1.10;;
79574;SDS011;69044;48.198;11.468;2023-12-14T00:40:33;1.63;;;1.20;;
79574;SDS011;69044;48.198;11.468;2023-12-14T00:43:02;2.13;;;1.20;;
79574;SDS011;69044;48.198;11.468;2023-12-14T00:45:29;1.75;;;1.20;;
79574;SDS011;69044;48.198;11.468;2023-12-14T00:47:56;1.77;;;1.20;;
79574;SDS011;69044;48.198;11.468;2023-12-14T00:50:23;1.92;;;1.27;;
79574;SDS011;69044;48.198;11.468;2023-12-14T00:52:50;1.75;;;1.30;;
79574;SDS011;69044;48.198;11.468;2023-12-14T00:55:18;2.28;;;1.40;;
79574;SDS011;69044;48.198;11.468;2023-12-14T00:57:45;1.67;;;1.20;;
79574;SDS011;69044;48.198;11.468;2023-12-14T01:00:14;3.42;;;1.35;;
79574;SDS011;69044;48.198;11.468;2023-12-14T01:02:41;1.85;;;1.20;;
79574;SDS011;69044;48.198;11.468;2023-12-14T01:05:08;1.85;;;1.30;;
79574;SDS011;69044;48.198;11.468;2023-12-14T01:07:35;1.48;;;1.02;;
79574;SDS011;69044;48.198;11.468;2023-12-14T01:10:03;1.63;;;1.20;;
79574;SDS011;69044;48.198;11.468;2023-12-14T01:12:30;2.20;;;1.20;;
79574;SDS011;69044;48.198;11.468;2023-12-14T01:14:58;4.10;;;1.20;;
79574;SDS011;69044;48.198;11.468;2023-12-14T01:17:26;1.90;;;1.05;;
79574;SDS011;69044;48.198;11.468;2023-12-14T01:19:54;1.15;;;0.90;;
79574;SDS011;69044;48.198;11.468;2023-12-14T01:22:21;1.58;;;0.82;;
79574;SDS011;69044;48.198;11.468;2023-12-14T01:24:48;1.33;;;0.80;;
79574;SDS011;69044;48.198;11.468;2023-12-14T01:27:15;1.05;;;0.85;;
79574;SDS011;69044;48.198;11.468;2023-12-14T01:29:42;1.20;;;0.90;;
79574;SDS011;69044;48.198;11.468;2023-12-14T01:32:10;1.15;;;0.80;;
79574;SDS011;69044;48.198;11.468;2023-12-14T01:34:38;2.08;;;1.10;;
79574;SDS011;69044;48.198;11.468;2023-12-14T01:37:05;1.75;;;1.10;;
79574;SDS011;69044;48.198;11.468;2023-12-14T01:39:32;1.17;;;0.90;;
79574;SDS011;69044;48.198;11.468;2023-12-14T01:41:59;2.40;;;1.00;;
79574;SDS011;69044;48.198;11.468;2023-12-14T01:44:26;1.50;;;0.80;;
79574;SDS011;69044;48.198;11.468;2023-12-14T01:46:54;1.10;;;0.75;;
79574;SDS011;69044;48.198;11.468;2023-12-14T01:49:21;1.77;;;0.90;;
79574;SDS011;69044;48.198;11.468;2023-12-14T01:51:49;0.68;;;0.68;;
79574;SDS011;69044;48.198;11.468;2023-12-14T01:54:16;0.82;;;0.82;;
79574;SDS011;69044;48.198;11.468;2023-12-14T01:56:43;1.10;;;0.90;;
79574;SDS011;69044;48.198;11.468;2023-12-14T01:59:12;1.00;;;0.90;;
79574;SDS011;69044;48.198;11.468;2023-12-14T02:01:41;1.45;;;1.00;;
79574;SDS011;69044;48.198;11.468;2023-12-14T02:04:10;0.77;;;0.73;;
79574;SDS011;69044;48.198;11.468;2023-12-14T02:06:38;1.13;;;0.80;;
79574;SDS011;69044;48.198;11.468;2023-12-14T02:09:07;1.25;;;1.10;;
79574;SDS011;69044;48.198;11.468;2023-12-14T02:11:34;1.00;;;0.90;;
79574;SDS011;69044;48.198;11.468;2023-12-14T02:14:03;0.57;;;0.57;;
79574;SDS011;69044;48.198;11.468;2023-12-14T02:16:30;1.15;;;0.80;;
79574;SDS011;69044;48.198;11.468;2023-12-14T02:18:58;1.83;;;1.08;;
79574;SDS011;69044;48.198;11.468;2023-12-14T02:21:25;1.15;;;0.80;;
79574;SDS011;69044;48.198;11.468;2023-12-14T02:23:53;1.67;;;0.93;;
79574;SDS011;69044;48.198;11.468;2023-12-14T02:26:21;1.50;;;1.15;;
79574;SDS011;69044;48.198;11.468;2023-12-14T02:28:48;1.15;;;0.90;;
79574;SDS011;69044;48.198;11.468;2023-12-14T02:31:15;1.60;;;1.10;;
79574;SDS011;69044;48.198;11.468;2023-12-14T02:33:42;2.00;;;1.25;;
79574;SDS011;69044;48.198;11.468;2023-12-14T02:36:09;1.90;;;1.25;;
79574;SDS011;69044;48.198;11.468;2023-12-14T02:38:36;2.38;;;1.42;;
79574;SDS011;69044;48.198;11.468;2023-12-14T02:41:05;2.40;;;1.20;;
79574;SDS011;69044;48.198;11.468;2023-12-14T02:43:32;2.47;;;1.30;;
79574;SDS011;69044;48.198;11.468;2023-12-14T02:46:00;3.75;;;1.60;;
79574;SDS011;69044;48.198;11.468;2023-12-14T02:48:28;2.88;;;1.50;;
79574;SDS011;69044;48.198;11.468;2023-12-14T02:50:55;3.60;;;1.50;;
79574;SDS011;69044;48.198;11.468;2023-12-14T02:53:23;2.40;;;1.50;;
79574;SDS011;69044;48.198;11.468;2023-12-14T02:55:50;2.78;;;1.70;;
79574;SDS011;69044;48.198;11.468;2023-12-14T02:58:18;2.60;;;1.50;;
79574;SDS011;69044;48.198;11.468;2023-12-14T03:00:46;2.13;;;1.52;;
79574;SDS011;69044;48.198;11.468;2023-12-14T03:03:13;2.60;;;1.60;;
79574;SDS011;69044;48.198;11.468;2023-12-14T03:05:40;2.78;;;1.60;;
79574;SDS011;69044;48.198;11.468;2023-12-14T03:08:07;2.70;;;1.60;;
79574;SDS011;69044;48.198;11.468;2023-12-14T03:10:34;2.53;;;1.50;;
79574;SDS011;69044;48.198;11.468;2023-12-14T03:13:01;3.65;;;1.75;;
79574;SDS011;69044;48.198;11.468;2023-12-14T03:15:30;3.08;;;1.67;;
79574;SDS011;69044;48.198;11.468;2023-12-14T03:17:57;2.47;;;1.58;;
79574;SDS011;69044;48.198;11.468;2023-12-14T03:20:24;2.65;;;1.63;;
79574;SDS011;69044;48.198;11.468;2023-12-14T03:22:52;2.90;;;1.60;;
79574;SDS011;69044;48.198;11.468;2023-12-14T03:25:19;3.40;;;1.63;;
79574;SDS011;69044;48.198;11.468;2023-12-14T03:27:46;2.60;;;1.40;;
79574;SDS011;69044;48.198;11.468;2023-12-14T03:30:13;3.10;;;1.80;;
79574;SDS011;69044;48.198;11.468;2023-12-14T03:32:41;3.05;;;1.83;;
79574;SDS011;69044;48.198;11.468;2023-12-14T03:35:08;2.45;;;1.52;;
79574;SDS011;69044;48.198;11.468;2023-12-14T03:37:36;2.83;;;1.77;;
79574;SDS011;69044;48.198;11.468;2023-12-14T03:40:03;2.92;;;1.60;;
79574;SDS011;69044;48.198;11.468;2023-12-14T03:42:31;2.70;;;1.63;;
79574;SDS011;69044;48.198;11.468;2023-12-14T03:44:58;2.75;;;1.48;;
79574;SDS011;69044;48.198;11.468;2023-12-14T03:47:25;2.85;;;1.60;;
79574;SDS011;69044;48.198;11.468;2023-12-14T03:49:54;3.13;;;1.50;;
79574;SDS011;69044;48.198;11.468;2023-12-14T03:52:21;2.88;;;1.60;;
79574;SDS011;69044;48.198;11.468;2023-12-14T03:54:48;2.50;;;1.55;;
79574;SDS011;69044;48.198;11.468;2023-12-14T03:57:15;2.95;;;1.58;;
79574;SDS011;69044;48.198;11.468;2023-12-14T03:59:42;2.30;;;1.50;;
79574;SDS011;69044;48.198;11.468;2023-12-14T04:02:09;2.40;;;1.40;;
79574;SDS011;69044;48.198;11.468;2023-12-14T04:04:36;3.65;;;1.50;;
79574;SDS011;69044;48.198;11.468;2023-12-14T04:07:04;2.42;;;1.33;;
79574;SDS011;69044;48.198;11.468;2023-12-14T04:09:32;2.30;;;1.40;;
79574;SDS011;69044;48.198;11.468;2023-12-14T04:11:59;2.60;;;1.55;;
79574;SDS011;69044;48.198;11.468;2023-12-14T04:14:26;1.67;;;1.20;;
79574;SDS011;69044;48.198;11.468;2023-12-14T04:16:54;2.30;;;1.30;;
79574;SDS011;69044;48.198;11.468;2023-12-14T04:19:21;2.20;;;1.48;;
79574;SDS011;69044;48.198;11.468;2023-12-14T04:21:48;2.13;;;1.23;;
79574;SDS011;69044;48.198;11.468;2023-12-14T04:24:16;2.35;;;1.30;;
79574;SDS011;69044;48.198;11.468;2023-12-14T04:26:44;3.20;;;1.80;;
79574;SDS011;69044;48.198;11.468;2023-12-14T04:29:11;2.95;;;1.73;;
79574;SDS011;69044;48.198;11.468;2023-12-14T04:31:38;3.83;;;2.00;;
79574;SDS011;69044;48.198;11.468;2023-12-14T04:34:05;4.15;;;2.20;;
79574;SDS011;69044;48.198;11.468;2023-12-14T04:36:37;3.35;;;1.90;;
79574;SDS011;69044;48.198;11.468;2023-12-14T04:39:04;3.53;;;2.00;;
79574;SDS011;69044;48.198;11.468;2023-12-14T04:41:33;4.13;;;2.28;;
79574;SDS011;69044;48.198;11.468;2023-12-14T04:44:00;5.72;;;3.40;;
79574;SDS011;69044;48.198;11.468;2023-12-14T04:46:27;4.13;;;2.60;;
79574;SDS011;69044;48.198;11.468;2023-12-14T04:48:54;2.20;;;1.45;;
79574;SDS011;69044;48.198;11.468;2023-12-14T04:51:21;3.25;;;1.70;;
79574;SDS011;69044;48.198;11.468;2023-12-14T04:53:48;2.53;;;1.75;;
79574;SDS011;69044;48.198;11.468;2023-12-14T04:56:15;4.03;;;1.80;;
79574;SDS011;69044;48.198;11.468;2023-12-14T04:58:44;2.33;;;1.45;;
79574;SDS011;69044;48.198;11.468;2023-12-14T05:01:11;2.60;;;1.98;;
79574;SDS011;69044;48.198;11.468;2023-12-14T05:03:38;2.33;;;1.60;;
79574;SDS011;69044;48.198;11.468;2023-12-14T05:06:06;2.00;;;1.20;;
79574;SDS011;69044;48.198;11.468;2023-12-14T05:08:33;2.15;;;1.23;;
79574;SDS011;69044;48.198;11.468;2023-12-14T05:11:01;1.75;;;1.10;;
79574;SDS011;69044;48.198;11.468;2023-12-14T05:13:29;2.22;;;1.30;;
79574;SDS011;69044;48.198;11.468;2023-12-14T05:15:57;2.20;;;1.40;;
79574;SDS011;69044;48.198;11.468;2023-12-14T05:18:25;1.98;;;1.40;;
79574;SDS011;69044;48.198;11.468;2023-12-14T05:20:52;2.75;;;1.48;;
79574;SDS011;69044;48.198;11.468;2023-12-14T05:23:19;1.80;;;1.23;;
79574;SDS011;69044;48.198;11.468;2023-12-14T05:25:46;2.00;;;1.20;;
79574;SDS011;69044;48.198;11.468;2023-12-14T05:28:14;2.83;;;1.58;;
79574;SDS011;69044;48.198;11.468;2023-12-14T05:30:41;2.65;;;1.50;;
79574;SDS011;69044;48.198;11.468;2023-12-14T05:33:09;2.85;;;1.40;;
79574;SDS011;69044;48.198;11.468;2023-12-14T05:35:36;2.00;;;1.27;;
79574;SDS011;69044;48.198;11.468;2023-12-14T05:38:04;2.50;;;1.40;;
79574;SDS011;69044;48.198;11.468;2023-12-14T05:40:31;2.38;;;1.30;;
79574;SDS011;69044;48.198;11.468;2023-12-14T05:42:58;2.55;;;1.40;;
79574;SDS011;69044;48.198;11.468;2023-12-14T05:45:25;2.63;;;1.40;;
79574;SDS011;69044;48.198;11.468;2023-12-14T05:47:52;2.30;;;1.30;;
79574;SDS011;69044;48.198;11.468;2023-12-14T05:50:21;2.65;;;1.50;;
79574;SDS011;69044;48.198;11.468;2023-12-14T05:55:16;2.70;;;1.40;;
79574;SDS011;69044;48.198;11.468;2023-12-14T05:57:47;3.00;;;1.30;;
79574;SDS011;69044;48.198;11.468;2023-12-14T06:00:14;2.53;;;1.60;;
79574;SDS011;69044;48.198;11.468;2023-12-14T06:02:42;2.67;;;1.50;;
79574;SDS011;69044;48.198;11.468;2023-12-14T06:05:09;3.80;;;1.90;;
79574;SDS011;69044;48.198;11.468;2023-12-14T06:07:37;3.33;;;1.90;;
79574;SDS011;69044;48.198;11.468;2023-12-14T06:10:05;2.92;;;1.55;;
79574;SDS011;69044;48.198;11.468;2023-12-14T06:12:32;2.38;;;1.58;;
79574;SDS011;69044;48.198;11.468;2023-12-14T06:14:59;3.58;;;1.92;;
79574;SDS011;69044;48.198;11.468;2023-12-14T06:17:27;3.05;;;1.60;;
79574;SDS011;69044;48.198;11.468;2023-12-14T06:19:54;3.47;;;1.58;;
79574;SDS011;69044;48.198;11.468;2023-12-14T06:22:21;2.90;;;1.80;;
79574;SDS011;69044;48.198;11.468;2023-12-14T06:24:50;3.30;;;2.10;;
79574;SDS011;69044;48.198;11.468;2023-12-14T06:27:17;3.72;;;2.10;;
79574;SDS011;69044;48.198;11.468;2023-12-14T06:29:44;3.20;;;1.88;;
79574;SDS011;69044;48.198;11.468;2023-12-14T06:32:11;2.97;;;1.80;;
79574;SDS011;69044;48.198;11.468;2023-12-14T06:34:38;3.92;;;2.03;;
79574;SDS011;69044;48.198;11.468;2023-12-14T06:37:06;4.90;;;1.63;;
79574;SDS011;69044;48.198;11.468;2023-12-14T06:39:33;4.63;;;2.22;;
79574;SDS011;69044;48.198;11.468;2023-12-14T06:42:02;3.42;;;1.50;;
79574;SDS011;69044;48.198;11.468;2023-12-14T06:44:30;2.80;;;1.60;;
79574;SDS011;69044;48.198;11.468;2023-12-14T06:46:57;3.78;;;1.90;;
79574;SDS011;69044;48.198;11.468;2023-12-14T06:49:24;4.13;;;1.73;;
79574;SDS011;69044;48.198;11.468;2023-12-14T06:51:52;2.35;;;1.67;;
79574;SDS011;69044;48.198;11.468;2023-12-14T06:54:19;3.00;;;1.80;;
79574;SDS011;69044;48.198;11.468;2023-12-14T06:56:46;3.38;;;1.98;;
79574;SDS011;69044;48.198;11.468;2023-12-14T06:59:15;4.57;;;1.73;;
79574;SDS011;69044;48.198;11.468;2023-12-14T07:04:09;4.88;;;1.83;;
79574;SDS011;69044;48.198;11.468;2023-12-14T07:06:36;4.38;;;1.92;;
79574;SDS011;69044;48.198;11.468;2023-12-14T07:09:03;4.07;;;2.00;;
79574;SDS011;69044;48.198;11.468;2023-12-14T07:11:31;4.57;;;2.00;;
79574;SDS011;69044;48.198;11.468;2023-12-14T07:13:58;4.47;;;1.95;;
79574;SDS011;69044;48.198;11.468;2023-12-14T07:16:26;3.53;;;1.90;;
79574;SDS011;69044;48.198;11.468;2023-12-14T07:18:53;4.55;;;2.10;;
79574;SDS011;69044;48.198;11.468;2023-12-14T07:21:20;4.05;;;2.40;;
79574;SDS011;69044;48.198;11.468;2023-12-14T07:23:48;3.75;;;2.15;;
79574;SDS011;69044;48.198;11.468;2023-12-14T07:26:15;4.88;;;1.90;;
79574;SDS011;69044;48.198;11.468;2023-12-14T07:28:42;3.95;;;2.08;;
79574;SDS011;69044;48.198;11.468;2023-12-14T07:31:09;3.35;;;1.88;;
79574;SDS011;69044;48.198;11.468;2023-12-14T07:33:38;4.18;;;2.13;;
79574;SDS011;69044;48.198;11.468;2023-12-14T07:36:05;4.25;;;2.30;;
79574;SDS011;69044;48.198;11.468;2023-12-14T07:38:33;3.25;;;1.80;;
79574;SDS011;69044;48.198;11.468;2023-12-14T07:41:00;4.32;;;2.13;;
79574;SDS011;69044;48.198;11.468;2023-12-14T07:43:27;4.60;;;2.50;;
79574;SDS011;69044;48.198;11.468;2023-12-14T07:45:54;4.60;;;2.30;;
79574;SDS011;69044;48.198;11.468;2023-12-14T07:48:21;3.38;;;1.80;;
79574;SDS011;69044;48.198;11.468;2023-12-14T07:50:50;4.57;;;2.22;;
79574;SDS011;69044;48.198;11.468;2023-12-14T07:55:44;4.28;;;2.40;;
79574;SDS011;69044;48.198;11.468;2023-12-14T07:58:11;4.22;;;2.58;;
79574;SDS011;69044;48.198;11.468;2023-12-14T08:00:38;5.25;;;3.22;;
79574;SDS011;69044;48.198;11.468;2023-12-14T08:03:06;4.95;;;2.40;;
79574;SDS011;69044;48.198;11.468;2023-12-14T08:05:33;5.00;;;2.85;;
79574;SDS011;69044;48.198;11.468;2023-12-14T08:08:01;5.68;;;2.75;;
79574;SDS011;69044;48.198;11.468;2023-12-14T08:10:28;5.28;;;3.20;;
79574;SDS011;69044;48.198;11.468;2023-12-14T08:12:55;5.55;;;3.22;;
79574;SDS011;69044;48.198;11.468;2023-12-14T08:15:22;7.45;;;2.80;;
79574;SDS011;69044;48.198;11.468;2023-12-14T08:17:49;6.40;;;3.50;;
79574;SDS011;69044;48.198;11.468;2023-12-14T08:20:17;5.03;;;2.90;;
79574;SDS011;69044;48.198;11.468;2023-12-14T08:22:44;5.45;;;2.92;;
79574;SDS011;69044;48.198;11.468;2023-12-14T08:25:13;5.78;;;2.55;;
79574;SDS011;69044;48.198;11.468;2023-12-14T08:27:41;5.95;;;3.00;;
79574;SDS011;69044;48.198;11.468;2023-12-14T08:30:10;6.45;;;3.42;;
79574;SDS011;69044;48.198;11.468;2023-12-14T08:32:38;6.20;;;3.17;;
79574;SDS011;69044;48.198;11.468;2023-12-14T08:35:05;5.72;;;2.80;;
79574;SDS011;69044;48.198;11.468;2023-12-14T08:37:32;5.75;;;3.45;;
79574;SDS011;69044;48.198;11.468;2023-12-14T08:40:00;5.95;;;3.10;;
79574;SDS011;69044;48.198;11.468;2023-12-14T08:42:28;5.28;;;2.92;;
79574;SDS011;69044;48.198;11.468;2023-12-14T08:44:55;5.50;;;2.83;;
79574;SDS011;69044;48.198;11.468;2023-12-14T08:47:22;6.57;;;2.90;;
79574;SDS011;69044;48.198;11.468;2023-12-14T08:49:50;4.05;;;2.40;;
79574;SDS011;69044;48.198;11.468;2023-12-14T08:52:18;5.03;;;2.70;;
79574;SDS011;69044;48.198;11.468;2023-12-14T08:54:45;7.55;;;2.97;;
79574;SDS011;69044;48.198;11.468;2023-12-14T08:57:12;4.55;;;2.70;;
79574;SDS011;69044;48.198;11.468;2023-12-14T08:59:41;6.00;;;2.72;;
79574;SDS011;69044;48.198;11.468;2023-12-14T09:02:08;4.97;;;2.53;;
79574;SDS011;69044;48.198;11.468;2023-12-14T09:04:35;5.20;;;2.80;;
79574;SDS011;69044;48.198;11.468;2023-12-14T09:07:02;7.00;;;3.60;;
79574;SDS011;69044;48.198;11.468;2023-12-14T09:09:30;6.70;;;3.17;;
79574;SDS011;69044;48.198;11.468;2023-12-14T09:11:58;5.25;;;3.00;;
79574;SDS011;69044;48.198;11.468;2023-12-14T09:14:25;6.15;;;3.08;;
79574;SDS011;69044;48.198;11.468;2023-12-14T09:16:53;4.95;;;2.65;;
79574;SDS011;69044;48.198;11.468;2023-12-14T09:19:20;5.75;;;2.95;;
79574;SDS011;69044;48.198;11.468;2023-12-14T09:21:47;7.32;;;3.22;;
79574;SDS011;69044;48.198;11.468;2023-12-14T09:24:15;5.35;;;2.80;;
79574;SDS011;69044;48.198;11.468;2023-12-14T09:26:43;4.75;;;2.90;;
79574;SDS011;69044;48.198;11.468;2023-12-14T09:29:10;5.22;;;3.10;;
79574;SDS011;69044;48.198;11.468;2023-12-14T09:31:40;6.35;;;2.78;;
79574;SDS011;69044;48.198;11.468;2023-12-14T09:34:09;5.38;;;2.70;;
79574;SDS011;69044;48.198;11.468;2023-12-14T09:36:36;6.25;;;2.90;;
79574;SDS011;69044;48.198;11.468;2023-12-14T09:39:03;4.80;;;2.40;;
79574;SDS011;69044;48.198;11.468;2023-12-14T09:41:36;6.03;;;3.00;;
79574;SDS011;69044;48.198;11.468;2023-12-14T09:44:03;5.28;;;2.65;;
79574;SDS011;69044;48.198;11.468;2023-12-14T09:46:33;7.10;;;2.85;;
79574;SDS011;69044;48.198;11.468;2023-12-14T09:49:02;4.80;;;2.33;;
79574;SDS011;69044;48.198;11.468;2023-12-14T09:51:32;4.97;;;2.65;;
79574;SDS011;69044;48.198;11.468;2023-12-14T09:53:59;4.65;;;2.78;;
79574;SDS011;69044;48.198;11.468;2023-12-14T09:56:26;4.60;;;2.55;;
79574;SDS011;69044;48.198;11.468;2023-12-14T09:58:54;6.47;;;2.72;;
79574;SDS011;69044;48.198;11.468;2023-12-14T10:01:22;7.22;;;2.75;;
79574;SDS011;69044;48.198;11.468;2023-12-14T10:03:50;5.03;;;2.70;;
79574;SDS011;69044;48.198;11.468;2023-12-14T10:06:35;5.63;;;2.55;;
79574;SDS011;69044;48.198;11.468;2023-12-14T10:09:02;5.35;;;2.53;;
79574;SDS011;69044;48.198;11.468;2023-12-14T10:11:30;4.93;;;2.65;;
79574;SDS011;69044;48.198;11.468;2023-12-14T10:13:57;6.30;;;3.28;;
79574;SDS011;69044;48.198;11.468;2023-12-14T10:16:28;6.03;;;3.10;;
79574;SDS011;69044;48.198;11.468;2023-12-14T10:18:56;4.00;;;2.30;;
79574;SDS011;69044;48.198;11.468;2023-12-14T10:21:24;3.03;;;1.90;;
79574;SDS011;69044;48.198;11.468;2023-12-14T10:23:52;2.88;;;1.60;;
79574;SDS011;69044;48.198;11.468;2023-12-14T10:26:22;4.22;;;1.45;;
79574;SDS011;69044;48.198;11.468;2023-12-14T10:28:49;2.53;;;1.40;;
79574;SDS011;69044;48.198;11.468;2023-12-14T10:31:17;2.97;;;1.55;;
79574;SDS011;69044;48.198;11.468;2023-12-14T10:33:45;2.72;;;1.40;;
79574;SDS011;69044;48.198;11.468;2023-12-14T10:36:12;2.42;;;1.30;;
79574;SDS011;69044;48.198;11.468;2023-12-14T10:38:40;3.03;;;1.70;;
79574;SDS011;69044;48.198;11.468;2023-12-14T10:41:08;5.15;;;2.22;;
79574;SDS011;69044;48.198;11.468;2023-12-14T10:46:04;4.63;;;2.47;;
79574;SDS011;69044;48.198;11.468;2023-12-14T10:48:31;5.80;;;3.38;;
79574;SDS011;69044;48.198;11.468;2023-12-14T10:50:59;5.82;;;2.78;;
79574;SDS011;69044;48.198;11.468;2023-12-14T10:53:28;6.90;;;3.30;;
79574;SDS011;69044;48.198;11.468;2023-12-14T10:55:55;6.18;;;3.13;;
79574;SDS011;69044;48.198;11.468;2023-12-14T10:58:26;7.35;;;2.90;;
79574;SDS011;69044;48.198;11.468;2023-12-14T11:00:58;4.97;;;2.80;;
79574;SDS011;69044;48.198;11.468;2023-12-14T11:03:26;5.15;;;2.58;;
79574;SDS011;69044;48.198;11.468;2023-12-14T11:05:53;5.93;;;2.97;;
79574;SDS011;69044;48.198;11.468;2023-12-14T11:08:20;7.05;;;3.47;;
79574;SDS011;69044;48.198;11.468;2023-12-14T11:10:52;5.05;;;3.00;;
79574;SDS011;69044;48.198;11.468;2023-12-14T11:13:21;5.00;;;2.58;;
79574;SDS011;69044;48.198;11.468;2023-12-14T11:15:50;4.50;;;2.58;;
79574;SDS011;69044;48.198;11.468;2023-12-14T11:18:21;4.63;;;2.75;;
79574;SDS011;69044;48.198;11.468;2023-12-14T11:20:51;5.68;;;2.60;;
79574;SDS011;69044;48.198;11.468;2023-12-14T11:23:27;5.97;;;2.60;;
79574;SDS011;69044;48.198;11.468;2023-12-14T11:25:57;5.55;;;2.50;;
79574;SDS011;69044;48.198;11.468;2023-12-14T11:28:25;4.85;;;2.40;;
79574;SDS011;69044;48.198;11.468;2023-12-14T11:30:54;3.30;;;1.73;;
79574;SDS011;69044;48.198;11.468;2023-12-14T11:33:22;3.28;;;1.98;;
79574;SDS011;69044;48.198;11.468;2023-12-14T11:35:50;3.88;;;1.95;;
79574;SDS011;69044;48.198;11.468;2023-12-14T11:38:18;3.53;;;1.83;;
79574;SDS011;69044;48.198;11.468;2023-12-14T11:40:46;3.50;;;1.70;;
79574;SDS011;69044;48.198;11.468;2023-12-14T11:43:14;2.50;;;1.63;;
79574;SDS011;69044;48.198;11.468;2023-12-14T11:45:42;3.47;;;1.95;;
79574;SDS011;69044;48.198;11.468;2023-12-14T11:48:11;4.22;;;2.10;;
79574;SDS011;69044;48.198;11.468;2023-12-14T11:50:38;4.15;;;1.67;;
79574;SDS011;69044;48.198;11.468;2023-12-14T11:53:06;2.65;;;1.50;;
79574;SDS011;69044;48.198;11.468;2023-12-14T11:58:03;2.85;;;1.50;;
79574;SDS011;69044;48.198;11.468;2023-12-14T12:00:31;2.78;;;1.80;;
79574;SDS011;69044;48.198;11.468;2023-12-14T12:03:08;3.35;;;1.80;;
79574;SDS011;69044;48.198;11.468;2023-12-14T12:05:38;2.72;;;1.50;;
79574;SDS011;69044;48.198;11.468;2023-12-14T12:08:06;3.03;;;1.60;;
79574;SDS011;69044;48.198;11.468;2023-12-14T12:10:33;2.55;;;1.60;;
79574;SDS011;69044;48.198;11.468;2023-12-14T12:13:02;2.97;;;1.52;;
79574;SDS011;69044;48.198;11.468;2023-12-14T12:15:31;2.17;;;1.38;;
79574;SDS011;69044;48.198;11.468;2023-12-14T12:17:58;2.67;;;1.60;;
79574;SDS011;69044;48.198;11.468;2023-12-14T12:20:27;2.20;;;1.30;;
79574;SDS011;69044;48.198;11.468;2023-12-14T12:22:54;3.33;;;1.70;;
79574;SDS011;69044;48.198;11.468;2023-12-14T12:25:21;3.05;;;1.55;;
79574;SDS011;69044;48.198;11.468;2023-12-14T12:27:49;3.35;;;1.50;;
79574;SDS011;69044;48.198;11.468;2023-12-14T12:30:16;2.95;;;1.50;;
79574;SDS011;69044;48.198;11.468;2023-12-14T12:32:43;3.40;;;1.60;;
79574;SDS011;69044;48.198;11.468;2023-12-14T12:35:11;4.78;;;1.80;;
79574;SDS011;69044;48.198;11.468;2023-12-14T12:37:40;3.63;;;1.63;;
79574;SDS011;69044;48.198;11.468;2023-12-14T12:40:08;2.80;;;1.80;;
79574;SDS011;69044;48.198;11.468;2023-12-14T12:42:36;2.75;;;1.70;;
79574;SDS011;69044;48.198;11.468;2023-12-14T12:45:03;3.30;;;1.63;;
79574;SDS011;69044;48.198;11.468;2023-12-14T12:47:31;2.92;;;1.73;;
79574;SDS011;69044;48.198;11.468;2023-12-14T12:49:58;3.67;;;1.83;;
79574;SDS011;69044;48.198;11.468;2023-12-14T12:52:25;3.85;;;1.80;;
79574;SDS011;69044;48.198;11.468;2023-12-14T12:54:54;3.00;;;1.67;;
79574;SDS011;69044;48.198;11.468;2023-12-14T12:57:21;3.00;;;1.80;;
79574;SDS011;69044;48.198;11.468;2023-12-14T12:59:48;3.13;;;1.60;;
79574;SDS011;69044;48.198;11.468;2023-12-14T13:02:15;3.53;;;1.70;;
79574;SDS011;69044;48.198;11.468;2023-12-14T13:04:42;3.33;;;1.90;;
79574;SDS011;69044;48.198;11.468;2023-12-14T13:07:10;3.33;;;1.80;;
79574;SDS011;69044;48.198;11.468;2023-12-14T13:09:37;2.75;;;1.70;;
79574;SDS011;69044;48.198;11.468;2023-12-14T13:12:06;2.65;;;1.60;;
79574;SDS011;69044;48.198;11.468;2023-12-14T13:14:35;4.38;;;1.65;;
79574;SDS011;69044;48.198;11.468;2023-12-14T13:17:03;2.85;;;1.58;;
79574;SDS011;69044;48.198;11.468;2023-12-14T13:19:30;3.00;;;1.70;;
79574;SDS011;69044;48.198;11.468;2023-12-14T13:21:57;3.22;;;1.60;;
79574;SDS011;69044;48.198;11.468;2023-12-14T13:24:25;2.78;;;1.67;;
79574;SDS011;69044;48.198;11.468;2023-12-14T13:26:52;3.28;;;1.75;;
79574;SDS011;69044;48.198;11.468;2023-12-14T13:29:21;3.17;;;1.60;;
79574;SDS011;69044;48.198;11.468;2023-12-14T13:34:15;2.05;;;1.35;;
79574;SDS011;69044;48.198;11.468;2023-12-14T13:36:42;2.67;;;1.50;;
79574;SDS011;69044;48.198;11.468;2023-12-14T13:39:09;3.47;;;1.55;;
79574;SDS011;69044;48.198;11.468;2023-12-14T13:41:37;3.95;;;1.60;;
79574;SDS011;69044;48.198;11.468;2023-12-14T13:44:04;2.58;;;1.45;;
79574;SDS011;69044;48.198;11.468;2023-12-14T13:46:33;3.00;;;1.60;;
79574;SDS011;69044;48.198;11.468;2023-12-14T13:49:00;3.95;;;2.10;;
79574;SDS011;69044;48.198;11.468;2023-12-14T13:51:27;2.92;;;1.60;;
79574;SDS011;69044;48.198;11.468;2023-12-14T13:53:55;5.22;;;2.60;;
79574;SDS011;69044;48.198;11.468;2023-12-14T13:56:22;4.45;;;2.53;;
79574;SDS011;69044;48.198;11.468;2023-12-14T13:58:49;5.35;;;1.98;;
79574;SDS011;69044;48.198;11.468;2023-12-14T14:01:17;6.30;;;3.30;;
79574;SDS011;69044;48.198;11.468;2023-12-14T14:03:45;4.82;;;2.53;;
79574;SDS011;69044;48.198;11.468;2023-12-14T14:06:13;3.55;;;2.28;;
79574;SDS011;69044;48.198;11.468;2023-12-14T14:08:40;4.15;;;2.65;;
79574;SDS011;69044;48.198;11.468;2023-12-14T14:11:07;3.72;;;2.05;;
79574;SDS011;69044;48.198;11.468;2023-12-14T14:13:35;3.22;;;1.73;;
79574;SDS011;69044;48.198;11.468;2023-12-14T14:16:02;4.15;;;2.42;;
79574;SDS011;69044;48.198;11.468;2023-12-14T14:20:59;7.18;;;2.70;;
79574;SDS011;69044;48.198;11.468;2023-12-14T14:23:26;4.43;;;2.40;;
79574;SDS011;69044;48.198;11.468;2023-12-14T14:25:53;4.05;;;2.17;;
79574;SDS011;69044;48.198;11.468;2023-12-14T14:28:21;4.15;;;2.10;;
79574;SDS011;69044;48.198;11.468;2023-12-14T14:30:48;3.67;;;1.77;;
79574;SDS011;69044;48.198;11.468;2023-12-14T14:33:15;3.97;;;2.00;;
79574;SDS011;69044;48.198;11.468;2023-12-14T14:38:12;3.88;;;1.92;;
79574;SDS011;69044;48.198;11.468;2023-12-14T14:43:07;3.33;;;2.10;;
79574;SDS011;69044;48.198;11.468;2023-12-14T14:45:35;3.75;;;2.22;;
79574;SDS011;69044;48.198;11.468;2023-12-14T14:48:03;4.38;;;2.13;;
79574;SDS011;69044;48.198;11.468;2023-12-14T14:50:34;3.45;;;2.15;;
79574;SDS011;69044;48.198;11.468;2023-12-14T14:53:01;4.00;;;2.35;;
79574;SDS011;69044;48.198;11.468;2023-12-14T14:55:30;3.25;;;2.20;;
79574;SDS011;69044;48.198;11.468;2023-12-14T14:57:58;2.88;;;2.03;;